Time;durP1;ratioP1;P1;durP2;ratioP2;P2;SDS_P1;SDS_P2;PMS_P1;PMS_P2;Temp;Humidity;BMP_temperature;BMP_pressure;BME280_temperature;BME280_humidity;BME280_pressure;Samples;Min_cycle;Max_cycle;Signal;HPM_P1;HPM_P2
2022/03/09 00:00:13;;;;;;;;;;;;;;;15.23;46.14;101811.38;1023925;28;1494;-66
2022/03/09 00:01:04;;;;;;;;;;;;;;;15.22;46.49;101807.88;1025314;28;742;-66
2022/03/09 00:01:54;;;;;;;;;;;;;;;15.21;46.14;101803.47;1025433;28;662;-66
2022/03/09 00:02:45;;;;;;;;;;;;;;;15.22;45.94;101805.19;1020500;29;728;-66
2022/03/09 00:03:35;;;;;;;;;;;;;;;15.21;46.22;101806.16;1020808;29;770;-67
2022/03/09 00:04:26;;;;;;;;;;;;;;;15.20;46.24;101808.94;1022934;29;1570;-66
2022/03/09 00:05:16;;;;;;;;;;;;;;;15.19;46.33;101809.91;1024985;29;631;-66
2022/03/09 00:06:07;;;;;;;;;;;;;;;15.18;46.07;101805.50;1025338;29;867;-65
2022/03/09 00:06:57;;;;;;;;;;;;;;;15.18;46.43;101800.13;1023597;29;617;-66
2022/03/09 00:07:47;;;;;;;;;;;;;;;15.18;46.82;101805.50;1024963;29;614;-65
2022/03/09 00:08:38;;;;;;;;;;;;;;;15.17;46.34;101799.28;1024654;29;1562;-66
2022/03/09 00:09:28;;;;;;;;;;;;;;;15.18;46.16;101811.72;1025397;28;602;-65
2022/03/09 00:10:19;;;;;;;;;;;;;;;15.18;46.11;101813.56;1025334;28;714;-65
2022/03/09 00:11:09;;;;;;;;;;;;;;;15.15;46.70;101806.56;1025989;28;611;-65
2022/03/09 00:12:00;;;;;;;;;;;;;;;15.16;46.43;101810.97;1025431;28;698;-65
2022/03/09 00:12:50;;;;;;;;;;;;;;;15.17;46.26;101815.38;1025571;28;1373;-65
2022/03/09 00:13:41;;;;;;;;;;;;;;;15.18;46.01;101808.19;1024871;29;647;-65
2022/03/09 00:14:31;;;;;;;;;;;;;;;15.16;46.61;101810.13;1023865;29;582;-65
2022/03/09 00:15:22;;;;;;;;;;;;;;;15.14;46.46;101807.53;1024714;29;670;-65
2022/03/09 00:16:12;;;;;;;;;;;;;;;15.15;46.04;101816.44;1024729;29;686;-66
2022/03/09 00:17:03;;;;;;;;;;;;;;;15.14;45.99;101812.03;1024300;29;694;-66
2022/03/09 00:17:53;;;;;;;;;;;;;;;15.14;46.56;101812.03;1024735;29;670;-66
2022/03/09 00:18:44;;;;;;;;;;;;;;;15.13;46.64;101808.50;1024596;29;1617;-66
2022/03/09 00:19:34;;;;;;;;;;;;;;;15.14;46.64;101817.41;1025216;28;1438;-66
2022/03/09 00:20:25;;;;;;;;;;;;;;;15.12;46.01;101822.03;1025373;28;681;-66
2022/03/09 00:21:15;;;;;;;;;;;;;;;15.12;46.35;101811.28;1025341;28;658;-66
2022/03/09 00:22:05;;;;;;;;;;;;;;;15.13;46.00;101813.88;1025287;28;647;-66
2022/03/09 00:22:56;;;;;;;;;;;;;;;15.14;46.57;101806.66;1021980;29;1479;-66
2022/03/09 00:23:46;;;;;;;;;;;;;;;15.13;46.33;101811.19;1024698;29;685;-66
2022/03/09 00:24:37;;;;;;;;;;;;;;;15.15;46.11;101816.44;1024897;29;658;-66
2022/03/09 00:25:27;;;;;;;;;;;;;;;15.13;46.21;101813.00;1021435;29;650;-66
2022/03/09 00:26:17;;;;;;;;;;;;;;;15.11;46.07;101820.28;1020746;29;777;-66
2022/03/09 00:27:08;;;;;;;;;;;;;;;15.11;46.02;101815.78;1020295;29;825;-66
2022/03/09 00:27:58;;;;;;;;;;;;;;;15.12;45.92;101822.03;1020731;29;647;-65
2022/03/09 00:28:49;;;;;;;;;;;;;;;15.13;46.06;101829.13;1023844;29;1636;-66
2022/03/09 00:29:39;;;;;;;;;;;;;;;15.11;46.58;101825.66;1025571;28;682;-66
2022/03/09 00:30:29;;;;;;;;;;;;;;;15.09;46.23;101824.91;1024224;29;1666;-66
2022/03/09 00:31:20;;;;;;;;;;;;;;;15.08;46.46;101823.19;1025245;28;686;-66
2022/03/09 00:32:11;;;;;;;;;;;;;;;15.07;46.45;101819.63;1025239;28;629;-65
2022/03/09 00:33:02;;;;;;;;;;;;;;;15.08;46.29;101828.56;1025795;28;622;-66
2022/03/09 00:33:52;;;;;;;;;;;;;;;15.07;46.23;101824.16;1020818;29;674;-66
2022/03/09 00:34:43;;;;;;;;;;;;;;;15.09;46.14;101822.22;1021324;29;666;-66
2022/03/09 00:35:33;;;;;;;;;;;;;;;15.07;46.63;101825.00;1020624;29;635;-66
2022/03/09 00:36:23;;;;;;;;;;;;;;;15.08;46.64;101825.88;1020748;29;678;-66
2022/03/09 00:37:14;;;;;;;;;;;;;;;15.08;46.04;101828.56;1020788;29;710;-66
2022/03/09 00:38:04;;;;;;;;;;;;;;;15.07;46.40;101826.84;1020737;29;638;-66
2022/03/09 00:38:56;;;;;;;;;;;;;;;15.07;46.40;101822.31;1024203;29;1677;-65
2022/03/09 00:39:46;;;;;;;;;;;;;;;15.08;46.32;101825.88;1024941;28;1522;-66
2022/03/09 00:40:37;;;;;;;;;;;;;;;15.08;46.42;101831.25;1021378;29;624;-66
2022/03/09 00:41:27;;;;;;;;;;;;;;;15.05;46.76;101826.94;1020238;29;617;-65
2022/03/09 00:42:17;;;;;;;;;;;;;;;15.08;46.30;101823.19;1020560;29;1579;-65
2022/03/09 00:43:08;;;;;;;;;;;;;;;15.05;46.03;101821.56;1020798;29;1944;-66
2022/03/09 00:43:58;;;;;;;;;;;;;;;15.06;46.36;101827.78;1020790;29;674;-66
2022/03/09 00:44:49;;;;;;;;;;;;;;;15.04;46.21;101819.03;1021445;29;646;-66
2022/03/09 00:45:39;;;;;;;;;;;;;;;15.04;45.98;101824.38;1020691;29;682;-65
2022/03/09 00:46:30;;;;;;;;;;;;;;;15.04;46.51;101819.88;1020768;29;625;-65
2022/03/09 00:47:20;;;;;;;;;;;;;;;15.04;46.55;101827.94;1021256;29;1586;-65
2022/03/09 00:48:10;;;;;;;;;;;;;;;15.03;46.07;101823.53;1024606;29;659;-65
2022/03/09 00:49:01;;;;;;;;;;;;;;;15.02;46.67;101821.81;1024767;29;590;-65
2022/03/09 00:49:51;;;;;;;;;;;;;;;15.02;46.39;101829.00;1023512;29;717;-65
2022/03/09 00:50:42;;;;;;;;;;;;;;;15.02;46.59;101820.94;1023602;29;640;-64
2022/03/09 00:51:32;;;;;;;;;;;;;;;15.01;46.27;101819.22;1024799;29;607;-65
2022/03/09 00:52:22;;;;;;;;;;;;;;;15.00;46.87;101822.88;1024508;29;638;-67
2022/03/09 00:53:13;;;;;;;;;;;;;;;15.02;46.34;101815.56;1021369;29;686;-66
2022/03/09 00:54:03;;;;;;;;;;;;;;;15.01;46.22;101816.53;1020725;29;643;-65
2022/03/09 00:54:54;;;;;;;;;;;;;;;15.01;46.44;101812.03;1020757;29;733;-65
2022/03/09 00:55:44;;;;;;;;;;;;;;;15.01;46.55;101814.72;1020606;29;786;-65
2022/03/09 00:56:34;;;;;;;;;;;;;;;15.01;46.50;101813.84;1020606;29;563;-65
2022/03/09 00:57:25;;;;;;;;;;;;;;;14.99;46.61;101819.31;1021970;29;1562;-65
2022/03/09 00:58:15;;;;;;;;;;;;;;;14.99;46.06;101807.72;1023449;29;670;-65
2022/03/09 00:59:06;;;;;;;;;;;;;;;14.99;46.33;101813.94;1024694;29;664;-66
2022/03/09 00:59:56;;;;;;;;;;;;;;;15.00;46.53;101818.34;1024593;29;634;-65
2022/03/09 01:00:47;;;;;;;;;;;;;;;15.00;45.99;101807.63;1024114;29;627;-65
2022/03/09 01:01:37;;;;;;;;;;;;;;;15.00;45.98;101817.50;1023621;29;1597;-65
2022/03/09 01:02:27;;;;;;;;;;;;;;;14.97;46.80;101815.00;1024473;29;1402;-65
2022/03/09 01:03:18;;;;;;;;;;;;;;;14.99;46.03;101821.16;1020698;29;1891;-65
2022/03/09 01:04:08;;;;;;;;;;;;;;;14.98;46.13;101816.75;1020664;29;670;-65
2022/03/09 01:04:59;;;;;;;;;;;;;;;15.00;46.25;101822.88;1020657;29;628;-65
2022/03/09 01:05:49;;;;;;;;;;;;;;;15.00;46.22;101828.22;1021432;29;635;-65
2022/03/09 01:06:39;;;;;;;;;;;;;;;15.01;45.77;101819.22;1021208;29;717;-65
2022/03/09 01:07:30;;;;;;;;;;;;;;;14.98;46.00;101809.53;1020868;29;637;-64
2022/03/09 01:08:20;;;;;;;;;;;;;;;14.98;46.10;101820.28;1020971;29;595;-64
2022/03/09 01:09:11;;;;;;;;;;;;;;;14.99;46.31;101818.47;1021122;29;662;-64
2022/03/09 01:10:01;;;;;;;;;;;;;;;14.98;46.29;101814.91;1021246;29;618;-65
2022/03/09 01:10:51;;;;;;;;;;;;;;;14.97;46.11;101815.00;1021174;29;619;-64
2022/03/09 01:11:42;;;;;;;;;;;;;;;14.96;46.11;101822.22;1020949;29;690;-65
2022/03/09 01:12:32;;;;;;;;;;;;;;;14.96;46.51;101822.22;1023320;29;1641;-65
2022/03/09 01:13:23;;;;;;;;;;;;;;;14.96;46.63;101822.22;1020812;29;713;-64
2022/03/09 01:14:13;;;;;;;;;;;;;;;14.97;46.60;101821.25;1021350;29;646;-65
2022/03/09 01:15:03;;;;;;;;;;;;;;;14.96;46.25;101813.28;1020160;29;674;-64
2022/03/09 01:15:54;;;;;;;;;;;;;;;14.98;46.51;101819.41;1020449;29;1147;-65
2022/03/09 01:16:44;;;;;;;;;;;;;;;14.96;45.94;101824.03;1020418;29;651;-65
2022/03/09 01:17:35;;;;;;;;;;;;;;;14.96;46.17;101824.03;1023877;29;1415;-65
2022/03/09 01:18:25;;;;;;;;;;;;;;;14.94;46.56;101821.44;1025034;28;622;-65
2022/03/09 01:19:16;;;;;;;;;;;;;;;14.93;46.03;101823.28;1025426;28;626;-65
2022/03/09 01:20:06;;;;;;;;;;;;;;;14.94;45.91;101825.00;1025027;28;674;-66
2022/03/09 01:20:56;;;;;;;;;;;;;;;14.96;46.36;101821.34;1024967;28;606;-65
2022/03/09 01:21:47;;;;;;;;;;;;;;;14.96;46.22;101829.41;1020582;29;721;-66
2022/03/09 01:22:37;;;;;;;;;;;;;;;14.94;46.51;101830.34;1021022;29;1618;-65
2022/03/09 01:23:28;;;;;;;;;;;;;;;14.93;46.41;101828.63;1025376;28;1967;-65
2022/03/09 01:24:18;;;;;;;;;;;;;;;14.93;46.20;101828.63;1024998;28;713;-65
2022/03/09 01:25:08;;;;;;;;;;;;;;;14.92;46.45;101826.91;1021941;28;1249;-64
2022/03/09 01:25:59;;;;;;;;;;;;;;;14.91;46.43;101827.88;1020617;29;650;-65
2022/03/09 01:26:49;;;;;;;;;;;;;;;14.91;46.67;101829.69;1020391;29;662;-64
2022/03/09 01:27:40;;;;;;;;;;;;;;;14.90;46.11;101828.84;1023577;29;1610;-65
2022/03/09 01:28:30;;;;;;;;;;;;;;;14.91;46.46;101825.19;1023479;29;662;-64
2022/03/09 01:29:21;;;;;;;;;;;;;;;14.90;46.01;101825.28;1024362;29;1055;-65
2022/03/09 01:30:11;;;;;;;;;;;;;;;14.89;46.48;101829.81;1023132;29;602;-65
2022/03/09 01:31:02;;;;;;;;;;;;;;;14.91;46.70;101821.66;1024596;29;670;-66
2022/03/09 01:31:52;;;;;;;;;;;;;;;14.91;46.62;101829.69;1024304;29;670;-66
2022/03/09 01:32:43;;;;;;;;;;;;;;;14.90;45.93;101820.78;1023927;29;1582;-66
2022/03/09 01:33:33;;;;;;;;;;;;;;;14.89;45.91;101813.69;1024325;29;1613;-66
2022/03/09 01:34:23;;;;;;;;;;;;;;;14.90;45.99;101817.25;1023223;29;658;-66
2022/03/09 01:35:14;;;;;;;;;;;;;;;14.87;46.20;101823.69;1024430;29;650;-66
2022/03/09 01:36:04;;;;;;;;;;;;;;;14.87;46.13;101818.31;1024340;29;625;-65
2022/03/09 01:36:55;;;;;;;;;;;;;;;14.88;46.57;101817.34;1024416;29;686;-65
2022/03/09 01:37:46;;;;;;;;;;;;;;;14.89;45.97;101818.19;1023729;29;698;-66
2022/03/09 01:38:36;;;;;;;;;;;;;;;14.84;46.66;101815.00;1024699;29;701;-66
2022/03/09 01:39:26;;;;;;;;;;;;;;;14.85;46.13;101814.03;1024853;29;643;-65
2022/03/09 01:40:17;;;;;;;;;;;;;;;14.86;46.34;101811.25;1024405;29;658;-65
2022/03/09 01:41:07;;;;;;;;;;;;;;;14.86;46.73;101813.94;1023264;29;608;-65
2022/03/09 01:41:58;;;;;;;;;;;;;;;14.87;46.28;101817.44;1024427;29;619;-65
2022/03/09 01:42:48;;;;;;;;;;;;;;;14.87;46.10;101812.94;1024771;28;1423;-65
2022/03/09 01:43:38;;;;;;;;;;;;;;;14.87;46.41;101812.06;1024908;28;654;-65
2022/03/09 01:44:29;;;;;;;;;;;;;;;14.83;46.19;101814.13;1024874;28;654;-65
2022/03/09 01:45:20;;;;;;;;;;;;;;;14.83;46.44;101811.44;1024965;28;618;-64
2022/03/09 01:46:11;;;;;;;;;;;;;;;14.84;46.48;101815.00;1025032;28;748;-65
2022/03/09 01:47:01;;;;;;;;;;;;;;;14.85;46.07;101806.84;1024891;28;678;-65
2022/03/09 01:47:52;;;;;;;;;;;;;;;14.82;46.55;101806.19;1024939;28;649;-65
2022/03/09 01:48:42;;;;;;;;;;;;;;;14.83;46.01;101811.44;1025339;28;636;-65
2022/03/09 01:49:32;;;;;;;;;;;;;;;14.82;45.98;101815.09;1025500;28;590;-65
2022/03/09 01:50:23;;;;;;;;;;;;;;;14.83;45.84;101816.81;1024876;28;563;-65
2022/03/09 01:51:13;;;;;;;;;;;;;;;14.84;46.38;101805.13;1024917;28;686;-65
2022/03/09 01:52:04;;;;;;;;;;;;;;;14.82;46.38;101807.03;1025230;28;724;-65
2022/03/09 01:52:54;;;;;;;;;;;;;;;14.83;46.00;101814.13;1024839;28;1609;-66
2022/03/09 01:53:45;;;;;;;;;;;;;;;14.83;45.91;101815.97;1024071;29;631;-66
2022/03/09 01:54:35;;;;;;;;;;;;;;;14.82;46.72;101815.09;1024348;29;615;-66
2022/03/09 01:55:25;;;;;;;;;;;;;;;14.81;45.84;101812.50;1023175;29;619;-66
2022/03/09 01:56:16;;;;;;;;;;;;;;;14.80;46.35;101806.28;1024342;29;717;-66
2022/03/09 01:57:06;;;;;;;;;;;;;;;14.82;46.05;101808.88;1024317;29;709;-66
2022/03/09 01:57:57;;;;;;;;;;;;;;;14.83;46.59;101816.81;1023355;29;732;-65
2022/03/09 01:58:47;;;;;;;;;;;;;;;14.80;46.68;101808.97;1022889;29;1174;-66
2022/03/09 01:59:38;;;;;;;;;;;;;;;14.80;46.81;101808.97;1022841;29;638;-66
2022/03/09 02:00:28;;;;;;;;;;;;;;;14.80;46.42;101800.91;1024179;29;689;-66
2022/03/09 02:01:18;;;;;;;;;;;;;;;14.78;46.41;101808.22;1024229;29;670;-67
2022/03/09 02:02:09;;;;;;;;;;;;;;;14.79;46.44;101804.56;1024552;29;658;-66
2022/03/09 02:02:59;;;;;;;;;;;;;;;14.80;45.88;101805.44;1023340;29;1598;-67
2022/03/09 02:03:50;;;;;;;;;;;;;;;14.77;45.98;101806.47;1024637;28;626;-66
2022/03/09 02:04:40;;;;;;;;;;;;;;;14.77;46.65;101806.47;1024872;28;646;-66
2022/03/09 02:05:30;;;;;;;;;;;;;;;14.78;46.16;101797.47;1024895;28;693;-66
2022/03/09 02:06:21;;;;;;;;;;;;;;;14.77;46.52;101801.13;1024907;28;649;-66
2022/03/09 02:07:11;;;;;;;;;;;;;;;14.76;46.28;101798.53;1024470;28;661;-67
2022/03/09 02:10:20;;;;;;;;;;;;;;;14.74;46.77;101798.63;1024902;29;658;-66
2022/03/09 02:11:11;;;;;;;;;;;;;;;14.74;46.73;101795.94;1024887;28;668;-67
2022/03/09 02:12:01;;;;;;;;;;;;;;;14.75;46.13;101791.44;1020482;29;635;-67
2022/03/09 02:12:52;;;;;;;;;;;;;;;14.73;46.14;101791.53;1020839;29;1566;-67
2022/03/09 02:13:42;;;;;;;;;;;;;;;14.74;46.00;101793.28;1024745;28;1158;-67
2022/03/09 02:14:32;;;;;;;;;;;;;;;14.74;46.50;101795.09;1024870;28;620;-65
2022/03/09 02:15:23;;;;;;;;;;;;;;;14.74;46.00;101789.72;1024474;28;1605;-64
2022/03/09 02:16:24;;;;;;;;;;;;;;;14.72;46.24;101789.81;1048957;28;1228;-65
2022/03/09 02:17:15;;;;;;;;;;;;;;;14.73;45.88;101788.00;1049407;28;1521;-64
2022/03/09 02:18:06;;;;;;;;;;;;;;;14.73;46.58;101786.19;1050019;28;683;-65
2022/03/09 02:18:56;;;;;;;;;;;;;;;14.75;46.02;101783.41;1049611;28;692;-64
2022/03/09 02:19:46;;;;;;;;;;;;;;;14.73;46.10;101782.63;1049693;28;1664;-64
2022/03/09 02:20:37;;;;;;;;;;;;;;;14.73;46.39;101785.31;1049997;28;703;-66
2022/03/09 02:21:27;;;;;;;;;;;;;;;14.73;46.66;101777.28;1050144;28;601;-65
2022/03/09 02:22:18;;;;;;;;;;;;;;;14.72;46.09;101779.09;1050085;28;665;-65
2022/03/09 02:23:08;;;;;;;;;;;;;;;14.71;46.00;101779.19;1049976;28;1669;-65
2022/03/09 02:23:59;;;;;;;;;;;;;;;14.70;46.25;101783.69;1048775;28;657;-65
2022/03/09 02:24:49;;;;;;;;;;;;;;;14.71;46.53;101777.38;1049224;28;1200;-65
2022/03/09 02:25:39;;;;;;;;;;;;;;;14.70;46.67;101778.34;1053658;28;644;-65
2022/03/09 02:26:30;;;;;;;;;;;;;;;14.71;46.33;101779.19;1053663;28;625;-65
2022/03/09 02:27:20;;;;;;;;;;;;;;;14.70;46.56;101783.69;1052776;28;1515;-65
2022/03/09 02:28:11;;;;;;;;;;;;;;;14.67;46.15;101778.56;1049931;28;669;-64
2022/03/09 02:29:01;;;;;;;;;;;;;;;14.68;45.92;101784.78;1049948;28;640;-64
2022/03/09 02:29:51;;;;;;;;;;;;;;;14.67;46.36;101780.38;1050048;28;640;-67
2022/03/09 02:30:42;;;;;;;;;;;;;;;14.68;46.88;101780.28;1049954;28;645;-65
2022/03/09 02:31:32;;;;;;;;;;;;;;;14.67;46.46;101791.97;1049992;28;1620;-65
2022/03/09 02:32:23;;;;;;;;;;;;;;;14.66;46.66;101792.09;1049866;28;652;-65
2022/03/09 02:33:13;;;;;;;;;;;;;;;14.67;46.67;101786.63;1049905;28;1763;-65
2022/03/09 02:34:04;;;;;;;;;;;;;;;14.67;46.54;101788.44;1048842;28;614;-65
2022/03/09 02:34:54;;;;;;;;;;;;;;;14.65;45.91;101788.53;1048886;28;637;-65
2022/03/09 02:35:44;;;;;;;;;;;;;;;14.66;46.48;101790.25;1048926;28;669;-65
2022/03/09 02:36:35;;;;;;;;;;;;;;;14.66;46.01;101786.72;1048889;28;704;-65
2022/03/09 02:37:25;;;;;;;;;;;;;;;14.66;46.76;101798.31;1048790;28;739;-65
2022/03/09 02:38:16;;;;;;;;;;;;;;;14.67;46.06;101791.13;1048919;28;626;-64
2022/03/09 02:39:06;;;;;;;;;;;;;;;14.64;46.38;101794.88;1048829;28;685;-65
2022/03/09 02:39:56;;;;;;;;;;;;;;;14.63;46.00;101790.47;1048804;28;610;-64
2022/03/09 02:40:47;;;;;;;;;;;;;;;14.65;45.79;101791.22;1048800;28;610;-65
2022/03/09 02:41:37;;;;;;;;;;;;;;;14.66;46.77;101800.13;1048842;28;607;-65
2022/03/09 02:42:28;;;;;;;;;;;;;;;14.64;46.66;101796.69;1049175;28;1622;-65
2022/03/09 02:43:18;;;;;;;;;;;;;;;14.63;46.43;101787.78;1045059;28;1545;-65
2022/03/09 02:44:08;;;;;;;;;;;;;;;14.64;45.63;101791.31;1045226;28;649;-65
2022/03/09 02:44:59;;;;;;;;;;;;;;;14.61;46.13;101795.06;1045150;28;686;-65
2022/03/09 02:45:49;;;;;;;;;;;;;;;14.60;46.81;101790.66;1045954;28;651;-65
2022/03/09 02:46:40;;;;;;;;;;;;;;;14.62;46.03;101790.56;1045829;28;689;-64
2022/03/09 02:47:30;;;;;;;;;;;;;;;14.63;46.08;101790.47;1048631;28;1689;-65
2022/03/09 02:48:21;;;;;;;;;;;;;;;14.62;46.50;101791.41;1048749;28;581;-65
2022/03/09 02:49:11;;;;;;;;;;;;;;;14.61;45.90;101792.38;1048996;28;652;-64
2022/03/09 02:50:01;;;;;;;;;;;;;;;14.62;46.04;101793.25;1049791;28;694;-64
2022/03/09 02:50:52;;;;;;;;;;;;;;;14.61;46.80;101791.53;1049939;28;660;-64
2022/03/09 02:51:42;;;;;;;;;;;;;;;14.61;46.80;101791.53;1049392;28;762;-64
2022/03/09 02:52:33;;;;;;;;;;;;;;;14.61;46.40;101794.19;1049199;28;1650;-66
2022/03/09 02:53:23;;;;;;;;;;;;;;;14.61;45.99;101795.06;1049764;28;1555;-65
2022/03/09 02:54:14;;;;;;;;;;;;;;;14.62;46.19;101796.78;1049311;28;637;-65
2022/03/09 02:55:04;;;;;;;;;;;;;;;14.61;45.88;101797.75;1048728;28;641;-65
2022/03/09 02:55:54;;;;;;;;;;;;;;;14.61;45.71;101795.06;1048747;28;1890;-65
2022/03/09 02:56:45;;;;;;;;;;;;;;;14.61;46.53;101800.44;1048891;28;657;-64
2022/03/09 02:57:35;;;;;;;;;;;;;;;14.59;45.84;101802.34;1049249;28;1661;-65
2022/03/09 02:58:26;;;;;;;;;;;;;;;14.57;46.57;101809.63;1048686;28;860;-65
2022/03/09 02:59:16;;;;;;;;;;;;;;;14.55;46.69;101793.63;1049229;28;741;-65
2022/03/09 03:00:09;;;;;;;;;;;;;;;14.55;46.73;101803.50;1048708;28;617;-65
2022/03/09 03:01:00;;;;;;;;;;;;;;;14.58;46.21;101801.47;1048747;28;633;-65
2022/03/09 03:01:50;;;;;;;;;;;;;;;14.57;46.69;101801.59;1049501;28;660;-65
2022/03/09 03:02:41;;;;;;;;;;;;;;;14.55;46.34;101798.13;1049307;28;605;-65
2022/03/09 03:03:31;;;;;;;;;;;;;;;14.56;45.81;101802.53;1043910;28;755;-65
2022/03/09 03:04:22;;;;;;;;;;;;;;;14.55;46.27;101800.81;1045826;28;617;-65
2022/03/09 03:05:12;;;;;;;;;;;;;;;14.55;46.08;101798.13;1045763;28;720;-65
2022/03/09 03:06:02;;;;;;;;;;;;;;;14.56;46.69;101802.53;1045805;28;731;-66
2022/03/09 03:06:53;;;;;;;;;;;;;;;14.55;46.04;101801.69;1045681;28;692;-65
2022/03/09 03:07:43;;;;;;;;;;;;;;;14.55;46.15;101795.47;1045761;28;597;-65
2022/03/09 03:08:34;;;;;;;;;;;;;;;14.56;46.55;101797.19;1045768;28;634;-65
2022/03/09 03:09:24;;;;;;;;;;;;;;;14.57;46.48;101796.22;1045598;28;711;-64
2022/03/09 03:10:14;;;;;;;;;;;;;;;14.56;46.37;101803.41;1045704;28;689;-65
2022/03/09 03:11:05;;;;;;;;;;;;;;;14.55;46.06;101798.13;1045218;28;683;-65
2022/03/09 03:11:55;;;;;;;;;;;;;;;14.55;46.05;101795.47;1045763;28;668;-65
2022/03/09 03:12:46;;;;;;;;;;;;;;;14.53;46.71;101797.38;1045734;28;676;-66
2022/03/09 03:13:36;;;;;;;;;;;;;;;14.51;46.21;101800.16;1045788;28;672;-65
2022/03/09 03:14:26;;;;;;;;;;;;;;;14.50;45.86;101786.88;1046061;28;655;-65
2022/03/09 03:15:17;;;;;;;;;;;;;;;14.50;46.15;101790.41;1047803;28;1584;-67
2022/03/09 03:16:07;;;;;;;;;;;;;;;14.49;46.58;101790.53;1051698;28;1890;-64
2022/03/09 03:16:58;;;;;;;;;;;;;;;14.49;46.80;101793.22;1054006;28;639;-65
2022/03/09 03:17:48;;;;;;;;;;;;;;;14.49;46.03;101793.22;1054223;28;616;-65
2022/03/09 03:18:39;;;;;;;;;;;;;;;14.47;46.97;101790.63;1054121;28;634;-65
2022/03/09 03:19:29;;;;;;;;;;;;;;;14.46;46.69;101794.25;1049680;28;636;-66
2022/03/09 03:20:19;;;;;;;;;;;;;;;14.46;46.01;101793.41;1049169;28;672;-66
2022/03/09 03:21:10;;;;;;;;;;;;;;;14.45;46.96;101783.63;1049195;28;668;-66
2022/03/09 03:22:00;;;;;;;;;;;;;;;14.45;46.14;101792.53;1049298;28;633;-66
2022/03/09 03:22:51;;;;;;;;;;;;;;;14.44;46.30;101795.31;1049260;28;672;-66
2022/03/09 03:23:41;;;;;;;;;;;;;;;14.47;45.85;101787.94;1052970;28;719;-66
2022/03/09 03:24:32;;;;;;;;;;;;;;;14.47;46.89;101787.94;1051605;28;669;-66
2022/03/09 03:25:22;;;;;;;;;;;;;;;14.46;46.78;101791.59;1048193;28;820;-66
2022/03/09 03:26:13;;;;;;;;;;;;;;;14.44;46.71;101789.97;1051027;27;680;-66
2022/03/09 03:27:03;;;;;;;;;;;;;;;14.43;46.71;101798.97;1050829;27;652;-66
2022/03/09 03:27:53;;;;;;;;;;;;;;;14.46;46.33;101802.31;1047848;28;636;-66
2022/03/09 03:28:44;;;;;;;;;;;;;;;14.45;46.14;101799.72;1048111;27;636;-67
2022/03/09 03:29:34;;;;;;;;;;;;;;;14.45;46.56;101800.59;1047926;27;629;-66
2022/03/09 03:30:25;;;;;;;;;;;;;;;14.45;46.66;101795.22;1047570;28;684;-66
2022/03/09 03:31:15;;;;;;;;;;;;;;;14.43;46.38;101788.22;1048144;27;629;-66
2022/03/09 03:32:05;;;;;;;;;;;;;;;14.44;46.78;101795.31;1048407;27;628;-66
2022/03/09 03:32:56;;;;;;;;;;;;;;;14.44;46.42;101789.97;1048069;27;639;-66
2022/03/09 03:33:47;;;;;;;;;;;;;;;14.43;46.77;101799.81;1047228;28;661;-66
2022/03/09 03:34:38;;;;;;;;;;;;;;;14.41;46.44;101792.84;1045782;28;639;-66
2022/03/09 03:35:28;;;;;;;;;;;;;;;14.41;45.95;101787.47;1047512;28;1491;-66
2022/03/09 03:36:18;;;;;;;;;;;;;;;14.41;46.46;101793.69;1051160;28;1910;-66
2022/03/09 03:37:09;;;;;;;;;;;;;;;14.42;47.07;101783.84;1051232;28;624;-66
2022/03/09 03:37:59;;;;;;;;;;;;;;;14.41;46.42;101793.69;1051093;28;763;-64
2022/03/09 03:38:50;;;;;;;;;;;;;;;14.40;46.10;101794.66;1050028;28;646;-64
2022/03/09 03:39:40;;;;;;;;;;;;;;;14.40;46.17;101791.97;1051041;28;748;-65
2022/03/09 03:40:30;;;;;;;;;;;;;;;14.39;46.59;101792.91;1051207;28;620;-65
2022/03/09 03:41:21;;;;;;;;;;;;;;;14.39;46.76;101790.22;1051146;28;802;-65
2022/03/09 03:42:11;;;;;;;;;;;;;;;14.39;46.84;101794.72;1051014;28;609;-65
2022/03/09 03:43:02;;;;;;;;;;;;;;;14.39;46.80;101800.09;1051011;28;1559;-65
2022/03/09 03:43:52;;;;;;;;;;;;;;;14.37;45.93;101797.50;1047444;28;629;-65
2022/03/09 03:44:42;;;;;;;;;;;;;;;14.38;46.71;101793.00;1046984;28;691;-65
2022/03/09 03:45:33;;;;;;;;;;;;;;;14.37;46.48;101794.81;1045835;28;721;-66
2022/03/09 03:46:23;;;;;;;;;;;;;;;14.37;46.25;101788.59;1047089;28;695;-65
2022/03/09 03:47:14;;;;;;;;;;;;;;;14.37;46.82;101793.97;1046968;28;616;-65
2022/03/09 03:48:04;;;;;;;;;;;;;;;14.37;46.19;101791.28;1046942;28;624;-66
2022/03/09 03:48:55;;;;;;;;;;;;;;;14.36;46.15;101793.09;1047620;28;597;-66
2022/03/09 03:49:45;;;;;;;;;;;;;;;14.35;46.35;101788.69;1046984;28;731;-65
2022/03/09 03:50:35;;;;;;;;;;;;;;;14.36;45.67;101795.78;1046965;28;704;-66
2022/03/09 03:51:26;;;;;;;;;;;;;;;14.37;46.57;101791.28;1046861;28;672;-65
2022/03/09 03:52:16;;;;;;;;;;;;;;;14.38;46.62;101795.69;1046827;28;632;-66
2022/03/09 03:53:07;;;;;;;;;;;;;;;14.35;45.92;101794.06;1047506;28;1619;-65
2022/03/09 03:53:57;;;;;;;;;;;;;;;14.33;46.02;101789.78;1048943;28;668;-65
2022/03/09 03:54:47;;;;;;;;;;;;;;;14.33;46.17;101785.25;1048096;28;1615;-66
2022/03/09 03:55:38;;;;;;;;;;;;;;;14.34;46.26;101786.09;1047509;28;602;-66
2022/03/09 03:56:28;;;;;;;;;;;;;;;14.33;46.73;101781.75;1047039;28;641;-66
2022/03/09 03:57:19;;;;;;;;;;;;;;;14.32;46.58;101782.69;1047886;28;1669;-66
2022/03/09 03:58:09;;;;;;;;;;;;;;;14.30;46.59;101779.25;1051012;28;665;-66
2022/03/09 03:59:00;;;;;;;;;;;;;;;14.32;46.77;101782.69;1051167;28;621;-66
2022/03/09 03:59:50;;;;;;;;;;;;;;;14.33;46.13;101779.06;1050974;28;672;-66
2022/03/09 04:00:40;;;;;;;;;;;;;;;14.30;46.72;101777.44;1051142;28;628;-66
2022/03/09 04:01:31;;;;;;;;;;;;;;;14.32;45.81;101777.34;1051112;28;795;-66
2022/03/09 04:02:21;;;;;;;;;;;;;;;14.31;46.22;101778.28;1050846;28;1610;-66
2022/03/09 04:03:12;;;;;;;;;;;;;;;14.29;46.82;101782.91;1050868;28;1595;-66
2022/03/09 04:04:02;;;;;;;;;;;;;;;14.28;46.67;101773.13;1048735;28;1496;-66
2022/03/09 04:04:52;;;;;;;;;;;;;;;14.30;45.71;101781.94;1048763;28;625;-66
2022/03/09 04:05:43;;;;;;;;;;;;;;;14.31;46.01;101780.97;1045522;28;670;-66
2022/03/09 04:06:33;;;;;;;;;;;;;;;14.29;46.95;101781.06;1046001;28;643;-66
2022/03/09 04:07:24;;;;;;;;;;;;;;;14.27;46.84;101777.63;1050237;28;645;-66
2022/03/09 04:08:14;;;;;;;;;;;;;;;14.28;46.27;101786.53;1048846;28;642;-66
2022/03/09 04:09:04;;;;;;;;;;;;;;;14.28;46.27;101782.03;1048265;28;779;-66
2022/03/09 04:09:55;;;;;;;;;;;;;;;14.29;46.66;101780.22;1048889;28;740;-66
2022/03/09 04:10:45;;;;;;;;;;;;;;;14.28;46.93;101787.41;1048941;28;669;-66
2022/03/09 04:11:36;;;;;;;;;;;;;;;14.28;46.68;101781.16;1049751;28;1582;-66
2022/03/09 04:12:26;;;;;;;;;;;;;;;14.28;46.59;101782.03;1048791;28;657;-66
2022/03/09 04:13:16;;;;;;;;;;;;;;;14.29;46.62;101782.91;1048429;28;1669;-66
2022/03/09 04:14:07;;;;;;;;;;;;;;;14.26;46.38;101783.94;1050933;28;701;-65
2022/03/09 04:14:57;;;;;;;;;;;;;;;14.27;46.42;101784.81;1050650;28;1646;-66
2022/03/09 04:15:48;;;;;;;;;;;;;;;14.27;45.70;101782.13;1051074;28;695;-65
2022/03/09 04:16:38;;;;;;;;;;;;;;;14.25;46.91;101776.88;1042567;28;625;-65
2022/03/09 04:17:28;;;;;;;;;;;;;;;14.27;46.69;101782.13;1042523;28;1689;-65
2022/03/09 04:18:19;;;;;;;;;;;;;;;14.24;46.75;101776.00;1042084;28;684;-65
2022/03/09 04:19:09;;;;;;;;;;;;;;;14.24;46.25;101776.00;1042082;28;769;-65
2022/03/09 04:20:00;;;;;;;;;;;;;;;14.25;46.02;101779.53;1042165;28;625;-65
2022/03/09 04:20:50;;;;;;;;;;;;;;;14.25;45.82;101776.88;1042265;28;789;-65
2022/03/09 04:21:40;;;;;;;;;;;;;;;14.25;45.79;101779.53;1042495;28;700;-64
2022/03/09 04:22:31;;;;;;;;;;;;;;;14.23;46.48;101784.16;1042647;28;881;-65
2022/03/09 04:23:21;;;;;;;;;;;;;;;14.21;46.79;101778.88;1039872;28;1579;-65
2022/03/09 04:24:12;;;;;;;;;;;;;;;14.21;46.72;101781.56;1038633;28;1625;-65
2022/03/09 04:25:02;;;;;;;;;;;;;;;14.20;46.14;101782.53;1041843;28;1228;-65
2022/03/09 04:25:53;;;;;;;;;;;;;;;14.21;46.05;101780.69;1046345;28;1042;-64
2022/03/09 04:26:43;;;;;;;;;;;;;;;14.21;46.12;101781.56;1045673;28;672;-65
2022/03/09 04:27:33;;;;;;;;;;;;;;;14.20;45.87;101790.56;1045623;28;681;-65